Time;durP1;ratioP1;P1;durP2;ratioP2;P2;SDS_P1;SDS_P2;PMS_P1;PMS_P2;Temp;Humidity;BMP_temperature;BMP_pressure;BME280_temperature;BME280_humidity;BME280_pressure;Samples;Min_cycle;Max_cycle;Signal;HPM_P1;HPM_P2
2021/10/16 00:00:51;;;;;;;22.02;20.73;;;;;;;;;;5094626;28;20553;-88
2021/10/16 00:03:19;;;;;;;23.17;21.27;;;;;;;;;;5093789;28;20211;-88
2021/10/16 00:05:46;;;;;;;22.02;20.30;;;;;;;;;;5092803;28;20203;-87
2021/10/16 00:08:13;;;;;;;22.42;20.73;;;;;;;;;;5093210;28;20225;-87
2021/10/16 00:10:41;;;;;;;22.48;20.90;;;;;;;;;;5094286;28;20211;-86
2021/10/16 00:13:08;;;;;;;22.42;20.65;;;;;;;;;;5094202;28;20283;-87
2021/10/16 00:15:36;;;;;;;22.30;20.80;;;;;;;;;;5093795;28;20231;-87
2021/10/16 00:18:05;;;;;;;21.50;20.15;;;;;;;;;;5092743;28;20204;-87
2021/10/16 00:20:32;;;;;;;21.67;20.10;;;;;;;;;;5093697;28;20196;-87
2021/10/16 00:22:59;;;;;;;22.65;21.10;;;;;;;;;;5093783;28;20651;-87
2021/10/16 00:25:27;;;;;;;23.67;21.73;;;;;;;;;;5093571;28;20215;-87
2021/10/16 00:27:54;;;;;;;22.58;20.98;;;;;;;;;;5093572;28;20195;-86
2021/10/16 00:30:22;;;;;;;22.00;20.50;;;;;;;;;;5093984;28;20204;-87
2021/10/16 00:32:49;;;;;;;22.45;20.80;;;;;;;;;;5094130;28;20191;-87
2021/10/16 00:35:18;;;;;;;21.75;20.27;;;;;;;;;;5093666;28;20192;-87
2021/10/16 00:37:45;;;;;;;21.63;20.30;;;;;;;;;;5093902;28;20211;-87
2021/10/16 00:40:13;;;;;;;21.80;20.20;;;;;;;;;;5093574;28;20629;-87
2021/10/16 00:42:47;;;;;;;21.70;20.17;;;;;;;;;;5093942;28;20195;-87
2021/10/16 00:45:14;;;;;;;22.88;21.02;;;;;;;;;;5093402;28;20252;-87
2021/10/16 00:47:43;;;;;;;23.38;21.77;;;;;;;;;;5092634;28;20203;-86
2021/10/16 00:50:11;;;;;;;24.45;22.73;;;;;;;;;;5093768;28;20195;-87
2021/10/16 00:52:40;;;;;;;23.48;21.67;;;;;;;;;;5097457;28;20241;-87
2021/10/16 00:55:08;;;;;;;22.45;20.95;;;;;;;;;;5097449;28;20196;-87
2021/10/16 00:57:35;;;;;;;22.77;21.00;;;;;;;;;;5097207;28;20231;-87
2021/10/16 01:00:03;;;;;;;23.25;21.75;;;;;;;;;;5097337;28;20202;-87
2021/10/16 01:02:30;;;;;;;23.02;21.45;;;;;;;;;;5097062;28;20196;-88
2021/10/16 01:04:58;;;;;;;23.50;21.80;;;;;;;;;;5097344;28;20664;-87
2021/10/16 01:07:26;;;;;;;22.92;21.52;;;;;;;;;;5097218;28;20185;-87
2021/10/16 01:09:55;;;;;;;23.58;21.60;;;;;;;;;;5097377;28;20187;-85
2021/10/16 01:12:22;;;;;;;23.40;21.38;;;;;;;;;;5097471;28;20190;-87
2021/10/16 01:14:51;;;;;;;23.27;21.58;;;;;;;;;;5096914;28;20227;-86
2021/10/16 01:17:19;;;;;;;23.30;21.65;;;;;;;;;;5097123;28;20644;-87
2021/10/16 01:19:47;;;;;;;23.23;21.35;;;;;;;;;;5096924;28;20200;-88
2021/10/16 01:22:16;;;;;;;23.90;22.10;;;;;;;;;;5097251;28;20195;-87
2021/10/16 01:24:44;;;;;;;22.83;21.42;;;;;;;;;;5096569;28;20219;-87
2021/10/16 01:27:13;;;;;;;23.95;22.10;;;;;;;;;;5096892;28;20185;-86
2021/10/16 01:29:40;;;;;;;23.00;21.38;;;;;;;;;;5096805;28;20210;-87
2021/10/16 01:32:08;;;;;;;23.13;21.27;;;;;;;;;;5097222;28;20282;-87
2021/10/16 01:34:35;;;;;;;22.52;21.05;;;;;;;;;;5096666;28;20191;-87
2021/10/16 01:37:02;;;;;;;23.25;21.52;;;;;;;;;;5096565;28;20192;-86
2021/10/16 01:39:31;;;;;;;24.45;22.30;;;;;;;;;;5095592;28;20202;-87
2021/10/16 01:41:58;;;;;;;23.77;22.05;;;;;;;;;;5096724;28;20245;-87
2021/10/16 01:44:26;;;;;;;23.30;21.80;;;;;;;;;;5096533;28;20681;-87
2021/10/16 01:46:53;;;;;;;25.63;23.48;;;;;;;;;;5096369;28;20284;-87
2021/10/16 01:49:21;;;;;;;23.77;22.08;;;;;;;;;;5096397;28;20659;-87
2021/10/16 01:51:49;;;;;;;24.55;22.70;;;;;;;;;;5096351;28;20187;-87
2021/10/16 01:54:17;;;;;;;23.40;21.90;;;;;;;;;;5095601;28;20188;-87
2021/10/16 01:56:46;;;;;;;23.65;21.88;;;;;;;;;;5095709;28;20231;-86
2021/10/16 01:59:14;;;;;;;23.55;21.88;;;;;;;;;;5095876;28;20535;-87
2021/10/16 02:01:41;;;;;;;24.42;22.48;;;;;;;;;;5095989;28;20188;-87
2021/10/16 02:04:09;;;;;;;24.45;22.73;;;;;;;;;;5096304;28;20207;-87
2021/10/16 02:06:36;;;;;;;25.17;23.27;;;;;;;;;;5096374;28;20191;-87
2021/10/16 02:09:04;;;;;;;25.38;23.35;;;;;;;;;;5095993;28;20189;-87
2021/10/16 02:11:31;;;;;;;26.25;23.85;;;;;;;;;;5096241;28;20192;-87
2021/10/16 02:14:01;;;;;;;26.30;24.00;;;;;;;;;;5095824;28;20189;-87
2021/10/16 02:16:29;;;;;;;24.25;22.35;;;;;;;;;;5095851;28;20216;-87
2021/10/16 02:18:56;;;;;;;23.83;22.23;;;;;;;;;;5095906;28;20210;-88
2021/10/16 02:21:24;;;;;;;24.40;22.70;;;;;;;;;;5096132;28;20196;-88
2021/10/16 02:23:51;;;;;;;24.63;22.73;;;;;;;;;;5095786;28;20194;-87
2021/10/16 02:26:19;;;;;;;25.65;23.20;;;;;;;;;;5095706;28;20225;-87
2021/10/16 02:28:46;;;;;;;26.33;24.33;;;;;;;;;;5095842;28;20210;-86
2021/10/16 02:31:15;;;;;;;25.13;23.33;;;;;;;;;;5095908;28;20556;-87
2021/10/16 02:33:43;;;;;;;26.40;24.25;;;;;;;;;;5095476;28;20187;-87
2021/10/16 02:36:10;;;;;;;27.08;24.83;;;;;;;;;;5095672;28;20191;-86
2021/10/16 02:38:37;;;;;;;26.45;24.15;;;;;;;;;;5095739;28;20218;-86
2021/10/16 02:41:05;;;;;;;26.98;24.40;;;;;;;;;;5095286;28;20192;-86
2021/10/16 02:43:32;;;;;;;26.42;24.52;;;;;;;;;;5094457;28;20208;-87
2021/10/16 02:45:59;;;;;;;26.52;24.25;;;;;;;;;;5095903;28;20215;-87
2021/10/16 02:48:28;;;;;;;26.30;24.35;;;;;;;;;;5095446;28;20187;-87
2021/10/16 02:50:56;;;;;;;26.30;24.35;;;;;;;;;;5095220;28;20193;-86
2021/10/16 02:53:23;;;;;;;27.90;25.50;;;;;;;;;;5095122;28;20199;-86
2021/10/16 02:55:51;;;;;;;27.85;25.55;;;;;;;;;;5093903;28;20203;-87
2021/10/16 02:58:18;;;;;;;26.98;25.08;;;;;;;;;;5095098;28;20239;-86
2021/10/16 03:00:46;;;;;;;26.88;24.60;;;;;;;;;;5095242;28;20201;-87
2021/10/16 03:03:13;;;;;;;28.95;26.23;;;;;;;;;;5095100;28;20200;-86
2021/10/16 03:05:42;;;;;;;26.15;24.25;;;;;;;;;;5094904;28;20235;-86
2021/10/16 03:08:09;;;;;;;27.65;25.45;;;;;;;;;;5094780;28;20210;-88
2021/10/16 03:10:37;;;;;;;27.40;25.00;;;;;;;;;;5095073;28;20215;-87
2021/10/16 03:13:04;;;;;;;27.40;25.17;;;;;;;;;;5094722;28;20195;-87
2021/10/16 03:15:31;;;;;;;26.90;24.88;;;;;;;;;;5094646;28;20234;-87
2021/10/16 03:17:59;;;;;;;26.45;24.38;;;;;;;;;;5094737;28;20192;-87
2021/10/16 03:20:26;;;;;;;28.05;25.92;;;;;;;;;;5093592;28;20191;-86
2021/10/16 03:22:55;;;;;;;27.08;25.08;;;;;;;;;;5094615;28;20222;-86
2021/10/16 03:25:23;;;;;;;26.42;24.05;;;;;;;;;;5094504;28;20222;-87
2021/10/16 03:27:50;;;;;;;27.15;24.90;;;;;;;;;;5094349;28;20978;-87
2021/10/16 03:30:17;;;;;;;26.70;24.98;;;;;;;;;;5094621;28;20203;-87
2021/10/16 03:32:45;;;;;;;27.30;25.08;;;;;;;;;;5094558;28;20193;-87
2021/10/16 03:35:12;;;;;;;26.33;24.35;;;;;;;;;;5094472;28;20212;-87
2021/10/16 03:37:39;;;;;;;28.35;26.08;;;;;;;;;;5094348;28;20188;-87
2021/10/16 03:40:10;;;;;;;26.67;24.67;;;;;;;;;;5094822;28;20191;-86
2021/10/16 03:42:38;;;;;;;27.25;25.25;;;;;;;;;;5093430;28;20573;-87
2021/10/16 03:45:05;;;;;;;26.70;24.67;;;;;;;;;;5094409;28;20600;-87
2021/10/16 03:47:33;;;;;;;27.38;25.20;;;;;;;;;;5094658;28;20538;-87
2021/10/16 03:50:00;;;;;;;25.25;23.35;;;;;;;;;;5094242;28;20192;-87
2021/10/16 03:52:28;;;;;;;26.48;24.50;;;;;;;;;;5094590;28;20254;-87
2021/10/16 03:54:55;;;;;;;27.42;25.13;;;;;;;;;;5094487;28;20542;-87
2021/10/16 03:57:24;;;;;;;26.48;24.48;;;;;;;;;;5092622;28;20326;-86
2021/10/16 03:59:52;;;;;;;26.83;24.92;;;;;;;;;;5094115;28;20188;-87
2021/10/16 04:02:19;;;;;;;28.10;26.05;;;;;;;;;;5094469;28;20198;-87
2021/10/16 04:04:47;;;;;;;27.77;25.50;;;;;;;;;;5094131;28;20573;-87
2021/10/16 04:07:14;;;;;;;27.40;25.40;;;;;;;;;;5094313;28;20222;-87
2021/10/16 04:09:41;;;;;;;27.00;25.10;;;;;;;;;;5093028;28;20252;-86
2021/10/16 04:12:09;;;;;;;29.25;26.45;;;;;;;;;;5094068;28;20200;-87
2021/10/16 04:14:38;;;;;;;26.70;24.63;;;;;;;;;;5093670;28;20222;-86
2021/10/16 04:17:06;;;;;;;26.45;24.17;;;;;;;;;;5094508;28;20199;-87
2021/10/16 04:19:33;;;;;;;28.98;26.60;;;;;;;;;;5093103;28;20188;-86
2021/10/16 04:22:00;;;;;;;28.67;26.67;;;;;;;;;;5093557;28;20603;-87
2021/10/16 04:24:28;;;;;;;29.52;27.23;;;;;;;;;;5093680;28;20622;-87
2021/10/16 04:26:55;;;;;;;28.83;26.42;;;;;;;;;;5097682;28;20198;-87
2021/10/16 04:29:24;;;;;;;27.20;24.83;;;;;;;;;;5096691;28;20234;-87
2021/10/16 04:31:53;;;;;;;27.85;25.85;;;;;;;;;;5097892;28;20299;-86
2021/10/16 04:34:20;;;;;;;28.05;25.95;;;;;;;;;;5098153;28;20192;-86
2021/10/16 04:36:47;;;;;;;28.25;25.77;;;;;;;;;;5097854;28;20211;-86
2021/10/16 04:39:15;;;;;;;27.38;25.45;;;;;;;;;;5097816;28;20210;-87
2021/10/16 04:41:42;;;;;;;28.33;25.88;;;;;;;;;;5097907;28;20188;-87
2021/10/16 04:44:10;;;;;;;27.83;25.80;;;;;;;;;;5097650;28;20211;-87
2021/10/16 04:46:38;;;;;;;26.88;25.13;;;;;;;;;;5097311;28;20227;-86
2021/10/16 04:49:08;;;;;;;27.20;25.23;;;;;;;;;;5097902;28;20207;-87
2021/10/16 04:51:36;;;;;;;28.13;26.13;;;;;;;;;;5097512;28;20194;-87
2021/10/16 04:54:03;;;;;;;27.65;25.65;;;;;;;;;;5097532;27;20210;-87
2021/10/16 04:56:31;;;;;;;28.83;26.42;;;;;;;;;;5097402;28;20199;-87
2021/10/16 04:58:58;;;;;;;26.60;24.73;;;;;;;;;;5097500;28;20183;-87
2021/10/16 05:01:25;;;;;;;29.88;27.63;;;;;;;;;;5097704;28;20194;-87
2021/10/16 05:03:53;;;;;;;28.70;26.38;;;;;;;;;;5097452;28;20199;-87
2021/10/16 05:06:22;;;;;;;28.77;26.52;;;;;;;;;;5096998;28;20239;-86
2021/10/16 05:08:49;;;;;;;30.17;27.25;;;;;;;;;;5097517;28;20580;-87
2021/10/16 05:11:16;;;;;;;33.35;30.60;;;;;;;;;;5097236;28;20195;-87
2021/10/16 05:13:44;;;;;;;30.23;27.85;;;;;;;;;;5097203;28;20183;-87
2021/10/16 05:16:11;;;;;;;31.23;28.33;;;;;;;;;;5097109;28;20230;-87
2021/10/16 05:18:38;;;;;;;28.23;26.17;;;;;;;;;;5097053;28;20636;-87
2021/10/16 05:21:06;;;;;;;29.30;26.90;;;;;;;;;;5097194;28;20214;-87
2021/10/16 05:23:34;;;;;;;28.30;25.90;;;;;;;;;;5096993;28;20209;-87
2021/10/16 05:26:02;;;;;;;28.40;26.40;;;;;;;;;;5096630;28;20251;-87
2021/10/16 05:28:30;;;;;;;28.30;26.27;;;;;;;;;;5097107;28;20557;-86
2021/10/16 05:30:57;;;;;;;29.48;26.88;;;;;;;;;;5096862;28;20609;-87
2021/10/16 05:33:24;;;;;;;28.88;26.60;;;;;;;;;;5097104;28;20230;-88
2021/10/16 05:35:52;;;;;;;29.48;27.10;;;;;;;;;;5097270;28;20552;-87
2021/10/16 05:38:19;;;;;;;29.23;26.77;;;;;;;;;;5095954;28;20199;-87
2021/10/16 05:40:48;;;;;;;31.63;28.17;;;;;;;;;;5096790;28;20207;-86
2021/10/16 05:43:16;;;;;;;29.17;26.95;;;;;;;;;;5096470;28;20199;-87
2021/10/16 05:45:43;;;;;;;30.70;27.65;;;;;;;;;;5096548;28;20335;-87
2021/10/16 05:48:11;;;;;;;30.27;27.77;;;;;;;;;;5096329;28;20187;-87
2021/10/16 05:50:38;;;;;;;31.25;28.75;;;;;;;;;;5096743;28;20212;-87
2021/10/16 05:53:05;;;;;;;30.27;27.75;;;;;;;;;;5096041;28;20676;-86
2021/10/16 05:55:33;;;;;;;29.83;27.40;;;;;;;;;;5096712;28;20187;-87
2021/10/16 05:58:02;;;;;;;31.65;28.90;;;;;;;;;;5096173;28;20239;-87
2021/10/16 06:00:29;;;;;;;29.48;27.20;;;;;;;;;;5096760;28;20187;-87
2021/10/16 06:02:57;;;;;;;30.58;28.33;;;;;;;;;;5096367;28;20191;-87
2021/10/16 06:05:25;;;;;;;31.58;28.98;;;;;;;;;;5096290;28;20211;-87
2021/10/16 06:07:52;;;;;;;30.33;27.92;;;;;;;;;;5095250;28;20196;-87
2021/10/16 06:10:20;;;;;;;30.95;28.30;;;;;;;;;;5096237;28;20199;-87
2021/10/16 06:12:47;;;;;;;29.90;27.45;;;;;;;;;;5095834;28;20199;-87
2021/10/16 06:15:16;;;;;;;30.67;27.95;;;;;;;;;;5095147;28;20229;-87
2021/10/16 06:17:44;;;;;;;33.63;30.15;;;;;;;;;;5095804;28;20200;-83
2021/10/16 06:20:12;;;;;;;30.08;27.33;;;;;;;;;;5095502;28;20188;-84
2021/10/16 06:22:39;;;;;;;31.67;28.98;;;;;;;;;;5095430;28;20226;-84
2021/10/16 06:25:07;;;;;;;29.75;27.40;;;;;;;;;;5095764;28;20207;-86
2021/10/16 06:27:35;;;;;;;31.55;28.80;;;;;;;;;;5095698;28;20192;-87
2021/10/16 06:30:02;;;;;;;31.60;28.63;;;;;;;;;;5095681;28;20204;-87
2021/10/16 06:32:31;;;;;;;33.80;30.38;;;;;;;;;;5094063;28;20200;-84
2021/10/16 06:34:59;;;;;;;31.40;28.60;;;;;;;;;;5095134;28;20188;-84
2021/10/16 06:37:27;;;;;;;33.85;29.08;;;;;;;;;;5095360;28;20196;-84
2021/10/16 06:39:54;;;;;;;32.42;29.38;;;;;;;;;;5095159;28;20522;-84
2021/10/16 06:42:21;;;;;;;30.80;28.25;;;;;;;;;;5095150;28;20189;-84
2021/10/16 06:44:49;;;;;;;32.60;29.42;;;;;;;;;;5095084;28;20189;-84
2021/10/16 06:47:16;;;;;;;32.95;30.15;;;;;;;;;;5094681;28;20207;-84
2021/10/16 06:49:45;;;;;;;32.03;28.92;;;;;;;;;;5093687;28;20188;-84
2021/10/16 06:52:12;;;;;;;31.38;28.55;;;;;;;;;;5094686;28;20207;-84
2021/10/16 06:54:39;;;;;;;33.08;30.25;;;;;;;;;;5094688;28;20207;-84
2021/10/16 06:57:07;;;;;;;32.10;29.20;;;;;;;;;;5093997;28;20236;-84
2021/10/16 06:59:34;;;;;;;31.23;28.55;;;;;;;;;;5094482;28;20630;-85
2021/10/16 07:02:01;;;;;;;32.28;29.40;;;;;;;;;;5094503;28;20201;-84
2021/10/16 07:04:29;;;;;;;32.22;28.95;;;;;;;;;;5094673;28;20188;-85
2021/10/16 07:06:58;;;;;;;32.50;29.33;;;;;;;;;;5094732;28;20220;-84
2021/10/16 07:09:25;;;;;;;32.25;29.08;;;;;;;;;;5094525;28;20228;-84
2021/10/16 07:11:52;;;;;;;31.27;28.48;;;;;;;;;;5094575;28;20200;-84
2021/10/16 07:14:19;;;;;;;31.55;28.65;;;;;;;;;;5094593;28;20589;-84
2021/10/16 07:16:47;;;;;;;33.28;30.02;;;;;;;;;;5094521;28;20200;-85
2021/10/16 07:19:14;;;;;;;31.23;28.60;;;;;;;;;;5094588;28;20191;-84
2021/10/16 07:21:42;;;;;;;34.40;31.63;;;;;;;;;;5094262;28;20204;-84
2021/10/16 07:24:10;;;;;;;33.63;30.85;;;;;;;;;;5094256;28;20201;-84
2021/10/16 07:26:39;;;;;;;30.30;27.38;;;;;;;;;;5094157;28;20222;-84
2021/10/16 07:29:07;;;;;;;30.40;27.95;;;;;;;;;;5094255;28;20192;-84
2021/10/16 07:31:34;;;;;;;30.88;27.98;;;;;;;;;;5094165;28;20208;-84
2021/10/16 07:34:02;;;;;;;31.77;28.67;;;;;;;;;;5093718;28;20188;-84
2021/10/16 07:36:34;;;;;;;31.25;28.65;;;;;;;;;;5094314;28;20189;-84
2021/10/16 07:39:01;;;;;;;33.97;29.98;;;;;;;;;;5093692;28;20643;-84
2021/10/16 07:41:30;;;;;;;33.45;30.17;;;;;;;;;;5094037;28;20207;-84
2021/10/16 07:43:58;;;;;;;31.30;28.40;;;;;;;;;;5093628;28;20191;-84
2021/10/16 07:46:25;;;;;;;29.95;27.23;;;;;;;;;;5093946;28;20231;-84
2021/10/16 07:48:53;;;;;;;27.17;25.23;;;;;;;;;;5094111;28;20210;-84
2021/10/16 07:51:20;;;;;;;33.42;27.83;;;;;;;;;;5094046;28;20207;-84
2021/10/16 07:53:47;;;;;;;29.13;26.50;;;;;;;;;;5093938;28;20192;-84
2021/10/16 07:56:15;;;;;;;28.75;26.05;;;;;;;;;;5093320;28;20203;-84
2021/10/16 07:58:44;;;;;;;29.17;26.33;;;;;;;;;;5093737;28;20193;-84
2021/10/16 08:01:12;;;;;;;28.58;25.80;;;;;;;;;;5093430;28;20205;-83
2021/10/16 08:03:39;;;;;;;30.98;28.52;;;;;;;;;;5093657;28;20551;-84
2021/10/16 08:06:07;;;;;;;28.83;26.50;;;;;;;;;;5093234;28;20213;-84
2021/10/16 08:08:35;;;;;;;28.75;26.02;;;;;;;;;;5092067;28;20336;-83
2021/10/16 08:11:02;;;;;;;27.47;25.40;;;;;;;;;;5093331;28;20193;-84
2021/10/16 08:13:30;;;;;;;27.70;25.38;;;;;;;;;;5093703;28;20442;-84
2021/10/16 08:16:00;;;;;;;27.88;25.17;;;;;;;;;;5092030;28;20222;-85
2021/10/16 08:18:28;;;;;;;28.77;26.30;;;;;;;;;;5093234;28;20193;-84
2021/10/16 08:20:55;;;;;;;27.77;25.50;;;;;;;;;;5093409;28;20191;-83
2021/10/16 08:23:23;;;;;;;28.77;26.58;;;;;;;;;;5093545;28;20200;-84
2021/10/16 08:25:50;;;;;;;29.75;27.30;;;;;;;;;;5093304;28;20224;-84
2021/10/16 08:28:18;;;;;;;29.65;26.70;;;;;;;;;;5093303;28;20199;-84
2021/10/16 08:30:50;;;;;;;30.88;27.88;;;;;;;;;;5093447;28;20195;-84
2021/10/16 08:33:19;;;;;;;29.77;27.25;;;;;;;;;;5093306;28;20229;-84
2021/10/16 08:35:46;;;;;;;28.95;26.40;;;;;;;;;;5093391;28;20190;-83
2021/10/16 08:38:14;;;;;;;28.90;26.70;;;;;;;;;;5092413;28;20187;-84
2021/10/16 08:40:41;;;;;;;29.35;26.75;;;;;;;;;;5093302;28;20468;-84
2021/10/16 08:43:09;;;;;;;30.08;27.35;;;;;;;;;;5093060;28;20632;-84
2021/10/16 08:45:37;;;;;;;30.48;27.63;;;;;;;;;;5093580;28;20532;-83
2021/10/16 08:48:05;;;;;;;29.33;26.58;;;;;;;;;;5093376;28;20211;-84
2021/10/16 08:50:35;;;;;;;30.30;26.87;;;;;;;;;;5093153;28;20256;-83
2021/10/16 08:53:02;;;;;;;29.30;26.35;;;;;;;;;;5093170;28;20937;-85
2021/10/16 08:55:30;;;;;;;29.13;26.47;;;;;;;;;;5093248;28;20217;-84
2021/10/16 08:57:57;;;;;;;31.30;28.30;;;;;;;;;;5092694;28;20449;-83
2021/10/16 09:00:38;;;;;;;29.63;26.83;;;;;;;;;;5093168;28;20237;-83
2021/10/16 09:03:15;;;;;;;28.55;26.05;;;;;;;;;;5092939;28;20257;-83
2021/10/16 09:05:57;;;;;;;26.08;23.95;;;;;;;;;;5093113;28;20201;-84
2021/10/16 09:08:28;;;;;;;27.75;25.10;;;;;;;;;;5092874;28;20196;-84
2021/10/16 09:11:11;;;;;;;31.05;28.15;;;;;;;;;;5092905;28;20655;-83
2021/10/16 09:13:43;;;;;;;27.40;25.27;;;;;;;;;;5096376;28;20190;-84
2021/10/16 09:16:19;;;;;;;26.92;24.63;;;;;;;;;;5096359;28;20672;-85
2021/10/16 09:18:51;;;;;;;28.45;25.95;;;;;;;;;;5096732;28;20200;-84
2021/10/16 09:21:20;;;;;;;27.73;25.03;;;;;;;;;;5096340;28;20627;-84
2021/10/16 09:23:48;;;;;;;27.10;24.97;;;;;;;;;;5096253;28;20445;-84
2021/10/16 09:26:15;;;;;;;28.33;25.52;;;;;;;;;;5095860;28;20536;-84
2021/10/16 09:28:42;;;;;;;28.58;26.05;;;;;;;;;;5096482;28;20196;-83
2021/10/16 09:31:11;;;;;;;28.13;25.47;;;;;;;;;;5096658;28;20555;-84
2021/10/16 09:33:48;;;;;;;36.78;26.80;;;;;;;;;;5096426;28;20471;-84
2021/10/16 09:36:23;;;;;;;29.88;27.00;;;;;;;;;;5095458;28;20193;-84
2021/10/16 09:38:51;;;;;;;26.50;24.30;;;;;;;;;;5096641;28;20189;-82
2021/10/16 09:41:25;;;;;;;27.95;25.45;;;;;;;;;;5096261;28;20197;-84
2021/10/16 09:43:53;;;;;;;26.77;24.57;;;;;;;;;;5096188;28;20190;-83
2021/10/16 09:46:21;;;;;;;27.55;25.35;;;;;;;;;;5096081;28;20444;-84
2021/10/16 09:48:48;;;;;;;27.17;24.67;;;;;;;;;;5096095;28;20202;-84
2021/10/16 09:51:16;;;;;;;28.25;25.45;;;;;;;;;;5095703;28;20414;-84
2021/10/16 09:53:46;;;;;;;26.00;24.10;;;;;;;;;;5095707;28;20191;-83
2021/10/16 09:56:14;;;;;;;25.63;23.50;;;;;;;;;;5095667;28;20438;-83
2021/10/16 09:58:42;;;;;;;25.27;23.47;;;;;;;;;;5095861;27;20442;-84
2021/10/16 10:01:10;;;;;;;24.80;22.97;;;;;;;;;;5095986;28;20407;-84
2021/10/16 10:03:38;;;;;;;28.27;24.50;;;;;;;;;;5095679;28;20864;-84
2021/10/16 10:06:05;;;;;;;25.40;22.83;;;;;;;;;;5095920;28;20436;-84
2021/10/16 10:08:34;;;;;;;25.00;23.00;;;;;;;;;;5095852;28;20811;-84
2021/10/16 10:11:04;;;;;;;28.03;24.23;;;;;;;;;;5095642;28;20455;-85
2021/10/16 10:13:31;;;;;;;26.83;24.03;;;;;;;;;;5095217;28;20441;-84
2021/10/16 10:15:59;;;;;;;27.70;24.90;;;;;;;;;;5095579;28;20470;-85
2021/10/16 10:21:12;;;;;;;27.13;23.03;;;;;;;;;;5095297;28;20893;-85
2021/10/16 10:23:52;;;;;;;25.47;23.30;;;;;;;;;;5095345;28;20436;-83
2021/10/16 10:26:26;;;;;;;25.13;23.07;;;;;;;;;;5095221;28;20414;-84
2021/10/16 10:28:57;;;;;;;24.77;22.73;;;;;;;;;;5094861;28;20892;-83
2021/10/16 10:31:43;;;;;;;25.40;23.07;;;;;;;;;;5095408;28;20416;-85
2021/10/16 10:34:13;;;;;;;24.37;22.13;;;;;;;;;;5094914;28;20454;-84
2021/10/16 10:36:47;;;;;;;25.73;23.60;;;;;;;;;;5095181;28;20904;-85
2021/10/16 10:39:44;;;;;;;24.57;22.60;;;;;;;;;;5095256;28;20439;-84
2021/10/16 10:42:45;;;;;;;27.23;24.80;;;;;;;;;;5032591;28;20948;-83
2021/10/16 10:45:24;;;;;;;24.70;22.40;;;;;;;;;;5032783;28;20462;-84
2021/10/16 10:47:59;;;;;;;23.83;22.03;;;;;;;;;;5032476;28;20872;-83
2021/10/16 10:50:43;;;;;;;24.53;22.33;;;;;;;;;;5032426;28;20421;-84
2021/10/16 10:53:11;;;;;;;24.57;22.87;;;;;;;;;;5032298;28;20447;-84
2021/10/16 10:55:54;;;;;;;24.83;23.00;;;;;;;;;;5032774;28;20447;-85
2021/10/16 10:58:21;;;;;;;25.50;23.33;;;;;;;;;;5030187;28;20476;-84
2021/10/16 11:00:51;;;;;;;25.83;23.43;;;;;;;;;;5015852;28;20956;-84
2021/10/16 11:03:38;;;;;;;23.40;21.50;;;;;;;;;;5031913;28;20421;-85
2021/10/16 11:06:17;;;;;;;22.77;21.03;;;;;;;;;;5015860;28;20835;-84
2021/10/16 11:08:45;;;;;;;23.77;21.90;;;;;;;;;;5032003;28;20560;-85
2021/10/16 11:11:13;;;;;;;23.50;21.50;;;;;;;;;;5032185;28;20470;-83
2021/10/16 11:13:40;;;;;;;22.83;20.63;;;;;;;;;;5015662;28;20838;-84
2021/10/16 11:16:09;;;;;;;22.90;20.60;;;;;;;;;;5057550;28;20423;-84
2021/10/16 11:18:38;;;;;;;23.77;22.20;;;;;;;;;;5094318;28;20435;-84
2021/10/16 11:21:07;;;;;;;24.97;22.27;;;;;;;;;;5094340;28;20419;-84
2021/10/16 11:23:34;;;;;;;24.30;22.00;;;;;;;;;;5094351;28;20440;-85
2021/10/16 11:26:02;;;;;;;22.47;20.73;;;;;;;;;;5092770;28;20982;-84
2021/10/16 11:28:31;;;;;;;23.23;21.20;;;;;;;;;;5092772;28;20462;-84
2021/10/16 11:30:58;;;;;;;22.30;20.20;;;;;;;;;;5093864;28;20419;-84
2021/10/16 11:33:29;;;;;;;23.70;21.33;;;;;;;;;;5094186;28;20418;-84
2021/10/16 11:35:58;;;;;;;22.77;20.77;;;;;;;;;;5091994;28;20452;-85
2021/10/16 11:38:26;;;;;;;21.50;19.93;;;;;;;;;;5094198;28;21087;-84
2021/10/16 11:40:55;;;;;;;22.47;20.57;;;;;;;;;;5093976;28;20906;-84
2021/10/16 11:43:23;;;;;;;22.80;20.90;;;;;;;;;;5092074;28;20448;-84
2021/10/16 11:45:51;;;;;;;22.80;21.00;;;;;;;;;;5094007;28;20522;-83
2021/10/16 11:48:20;;;;;;;23.10;21.30;;;;;;;;;;5093831;28;20802;-84
2021/10/16 11:50:49;;;;;;;23.70;21.77;;;;;;;;;;5093531;28;20414;-84
2021/10/16 11:53:18;;;;;;;23.87;22.00;;;;;;;;;;5093633;28;20486;-84
2021/10/16 11:55:46;;;;;;;23.87;22.03;;;;;;;;;;5093867;28;20422;-84
2021/10/16 11:58:16;;;;;;;22.97;20.97;;;;;;;;;;5092454;28;20480;-83
2021/10/16 12:00:43;;;;;;;23.50;21.30;;;;;;;;;;5092414;28;20451;-84
2021/10/16 12:03:13;;;;;;;22.90;20.67;;;;;;;;;;5092392;28;20423;-84
2021/10/16 12:05:41;;;;;;;23.40;21.27;;;;;;;;;;5093122;28;20925;-84
2021/10/16 12:08:17;;;;;;;38.97;24.27;;;;;;;;;;5093322;28;20458;-84
2021/10/16 12:10:52;;;;;;;24.20;22.00;;;;;;;;;;5093548;28;20419;-84
2021/10/16 12:13:40;;;;;;;23.20;21.00;;;;;;;;;;5093246;28;20410;-84
2021/10/16 12:16:11;;;;;;;23.07;21.37;;;;;;;;;;5088566;28;20460;-85
2021/10/16 12:18:49;;;;;;;23.63;21.60;;;;;;;;;;5093188;28;20448;-84
2021/10/16 12:21:25;;;;;;;22.33;20.40;;;;;;;;;;5093426;28;20791;-84
2021/10/16 12:23:55;;;;;;;23.27;20.77;;;;;;;;;;5092105;28;20411;-83
2021/10/16 12:26:23;;;;;;;23.30;21.13;;;;;;;;;;5093287;28;20440;-84
2021/10/16 12:28:51;;;;;;;23.23;21.13;;;;;;;;;;5092895;28;20471;-84
2021/10/16 12:31:19;;;;;;;23.17;21.27;;;;;;;;;;5093609;28;20763;-84
2021/10/16 12:33:59;;;;;;;24.37;21.80;;;;;;;;;;5091995;28;20412;-84
2021/10/16 12:36:28;;;;;;;22.20;20.70;;;;;;;;;;5093569;28;20511;-84
2021/10/16 12:38:57;;;;;;;25.40;23.07;;;;;;;;;;5093011;28;20443;-84
2021/10/16 12:41:26;;;;;;;25.30;23.13;;;;;;;;;;5091902;28;20807;-84
2021/10/16 12:43:54;;;;;;;25.13;22.87;;;;;;;;;;5093037;28;20505;-84
2021/10/16 12:46:28;;;;;;;24.00;22.20;;;;;;;;;;5093171;28;20917;-84
2021/10/16 12:48:57;;;;;;;22.80;21.00;;;;;;;;;;5097227;28;20460;-84
2021/10/16 12:51:39;;;;;;;22.57;20.80;;;;;;;;;;5097085;28;20411;-84
2021/10/16 12:54:09;;;;;;;22.73;20.93;;;;;;;;;;5094857;28;20441;-84
2021/10/16 12:56:37;;;;;;;23.13;21.50;;;;;;;;;;5096545;28;20466;-83
2021/10/16 12:59:05;;;;;;;23.63;21.93;;;;;;;;;;5097219;28;20415;-84
2021/10/16 13:01:33;;;;;;;24.00;21.60;;;;;;;;;;5096151;28;20449;-84
2021/10/16 13:04:00;;;;;;;23.00;21.43;;;;;;;;;;5096643;28;21198;-84
2021/10/16 13:06:28;;;;;;;21.90;20.20;;;;;;;;;;5096564;28;20440;-84
2021/10/16 13:08:55;;;;;;;23.23;21.50;;;;;;;;;;5096937;28;20458;-84
2021/10/16 13:11:24;;;;;;;23.03;21.23;;;;;;;;;;5096470;28;20414;-84
2021/10/16 13:13:51;;;;;;;24.17;22.03;;;;;;;;;;5096416;28;20460;-84
2021/10/16 13:16:19;;;;;;;24.07;22.33;;;;;;;;;;5096856;28;20404;-84
2021/10/16 13:18:46;;;;;;;24.37;22.40;;;;;;;;;;5096130;28;20921;-84
2021/10/16 13:21:13;;;;;;;25.57;23.17;;;;;;;;;;5096328;28;20406;-84
2021/10/16 13:23:41;;;;;;;22.07;20.23;;;;;;;;;;5096340;28;20414;-84
2021/10/16 13:26:08;;;;;;;21.23;19.50;;;;;;;;;;5096493;28;20437;-84
2021/10/16 13:28:37;;;;;;;21.63;20.13;;;;;;;;;;5078361;28;20467;-84
2021/10/16 13:31:05;;;;;;;21.90;20.10;;;;;;;;;;5096039;28;20436;-84
2021/10/16 13:33:32;;;;;;;22.27;20.43;;;;;;;;;;5096337;28;20422;-84
2021/10/16 13:36:00;;;;;;;20.90;19.60;;;;;;;;;;5096062;28;20412;-84
2021/10/16 13:38:27;;;;;;;24.57;22.67;;;;;;;;;;5096364;28;20418;-84
2021/10/16 13:40:55;;;;;;;22.60;21.20;;;;;;;;;;5096332;28;20447;-84
2021/10/16 13:43:22;;;;;;;21.67;20.10;;;;;;;;;;5095823;28;20407;-84
2021/10/16 13:45:51;;;;;;;22.23;20.43;;;;;;;;;;5095901;28;20414;-83
2021/10/16 13:48:19;;;;;;;22.10;20.37;;;;;;;;;;5095929;28;20454;-84
2021/10/16 13:50:47;;;;;;;24.37;22.10;;;;;;;;;;5095782;28;20476;-83
2021/10/16 13:53:14;;;;;;;23.70;21.80;;;;;;;;;;5094484;28;20453;-84
2021/10/16 13:55:42;;;;;;;22.50;20.80;;;;;;;;;;5096252;28;20415;-84
2021/10/16 13:58:09;;;;;;;21.90;20.20;;;;;;;;;;5094878;28;20454;-84
2021/10/16 14:00:36;;;;;;;22.33;20.50;;;;;;;;;;5094784;28;20444;-84
2021/10/16 14:03:05;;;;;;;23.93;22.23;;;;;;;;;;5094672;28;20448;-84
2021/10/16 14:05:33;;;;;;;24.33;22.10;;;;;;;;;;5094530;28;20484;-84
2021/10/16 14:08:00;;;;;;;23.83;22.03;;;;;;;;;;5095540;28;20965;-84
2021/10/16 14:10:28;;;;;;;22.70;21.00;;;;;;;;;;5094319;28;20468;-85
2021/10/16 14:12:55;;;;;;;22.80;21.30;;;;;;;;;;5095445;28;20523;-84
2021/10/16 14:15:22;;;;;;;22.53;20.90;;;;;;;;;;5095143;28;20475;-84
2021/10/16 14:17:50;;;;;;;21.97;20.57;;;;;;;;;;5095141;28;20452;-84
2021/10/16 14:20:18;;;;;;;23.20;21.40;;;;;;;;;;5095779;28;20415;-84
2021/10/16 14:22:46;;;;;;;22.40;20.83;;;;;;;;;;5095508;28;20440;-84
2021/10/16 14:25:14;;;;;;;25.93;21.53;;;;;;;;;;5094114;28;20419;-84
2021/10/16 14:27:41;;;;;;;23.07;21.33;;;;;;;;;;5095223;28;20444;-84